Dimitrios — SY2079 — position and weather

sailwx.info

Track history (hours):
 
Tides and Currents Weather Stations Pressure Air Temp Water Temp Dewpoint Dewpoint Depression Visibility Wind Speed Wind Dir Waves Ship Positions

Dimitrios

Last reported at 2017-Nov-05 21:02 UTC. Time now 2017-Nov-19 14:19 UTC.
Position N 39°58' E 024°03'.
Warning: this ship's position is 13 days out of date.

Length 29 m; draft 2.7 m.

Type: Fishing. MMSI: 240104000.

Date/timePositionNaut miles runAvg speedWind from/ knotsBaromVisibWave heightAir tempDewpointWater temp
2017-Nov-05 21:02N 39°58' E 024°03'0 8.6
2017-Nov-05 20:59N 39°59' E 024°04'4 8.5
2017-Nov-05 20:29N 40°01' E 024°08'4 8.5
2017-Nov-05 20:00N 40°03' E 024°13'38 2.1
2017-Nov-05 02:15N 40°40' E 024°06'1 3.1
2017-Nov-05 01:54N 40°40' E 024°05'5 2.9
2017-Nov-05 00:08N 40°37' E 023°60'4 2.6
2017-Nov-04 22:31N 40°41' E 024°03'0 3.3
2017-Nov-04 22:26N 40°41' E 024°03'1 3.3
2017-Nov-04 22:00N 40°41' E 024°05'3 3.3
2017-Nov-04 21:10N 40°41' E 024°09'1 3.4
2017-Nov-04 20:54N 40°42' E 024°09'3 2.9
2017-Nov-04 19:57N 40°41' E 024°06'  
2017-Oct-31 07:15N 40°18' E 024°19'1 3.1
2017-Oct-31 06:58N 40°18' E 024°20'1 3.0
2017-Oct-31 06:30N 40°16' E 024°21'2 3.0
2017-Oct-31 06:00N 40°15' E 024°22'2 3.1
2017-Oct-31 05:30N 40°14' E 024°23'  
Track history (hours):
 
Tides and Currents Weather Stations Pressure Air Temp Water Temp Dewpoint Dewpoint Depression Visibility Wind Speed Wind Dir Waves Ship Positions

Dimitrios

Last reported at 2017-Nov-05 21:02 UTC. Time now 2017-Nov-19 14:19 UTC.
Position N 39°58' E 024°03'.
Warning: this ship's position is 13 days out of date.

Length 29 m; draft 2.7 m.

Type: Fishing. MMSI: 240104000.

Date/timePositionNaut miles runAvg speedWind from/ knotsBaromVisibWave heightAir tempDewpointWater temp
2017-Nov-05 21:02N 39°58' E 024°03'0 8.6
2017-Nov-05 20:59N 39°59' E 024°04'4 8.5
2017-Nov-05 20:29N 40°01' E 024°08'4 8.5
2017-Nov-05 20:00N 40°03' E 024°13'38 2.1
2017-Nov-05 02:15N 40°40' E 024°06'1 3.1
2017-Nov-05 01:54N 40°40' E 024°05'5 2.9
2017-Nov-05 00:08N 40°37' E 023°60'4 2.6
2017-Nov-04 22:31N 40°41' E 024°03'0 3.3
2017-Nov-04 22:26N 40°41' E 024°03'1 3.3
2017-Nov-04 22:00N 40°41' E 024°05'3 3.3
2017-Nov-04 21:10N 40°41' E 024°09'1 3.4
2017-Nov-04 20:54N 40°42' E 024°09'3 2.9
2017-Nov-04 19:57N 40°41' E 024°06'  
2017-Oct-31 07:15N 40°18' E 024°19'1 3.1
2017-Oct-31 06:58N 40°18' E 024°20'1 3.0
2017-Oct-31 06:30N 40°16' E 024°21'2 3.0
2017-Oct-31 06:00N 40°15' E 024°22'2 3.1
2017-Oct-31 05:30N 40°14' E 024°23'  

Dump ship's entire track history